Terminal Aerodrome Forecast
Issued by NWS

Home | Current Version | Previous Version | Text Only | Print | Product List | Glossary Off
Versions: 1 2 3 4 5 6 7 8 9 10 11 12 13 14 15

000
FTUS43 KIWX 201100 RRA
TAFSBN
TAF
KSBN 201141Z 2012/2112 24013KT P6SM BKN040
     FM201500 27016G24KT P6SM BKN035
     FM201900 28015G22KT 4SM -SHSN BKN030
      TEMPO 2019/2023 2SM -SHSN
     FM202300 28012KT P6SM BKN035=

USA.gov is the U.S. government's official web portal to all federal, state and local government web resources and services.